Time;durP1;ratioP1;P1;durP2;ratioP2;P2;SDS_P1;SDS_P2;PMS_P1;PMS_P2;Temp;Humidity;BMP_temperature;BMP_pressure;BME280_temperature;BME280_humidity;BME280_pressure;Samples;Min_cycle;Max_cycle;Signal;HPM_P1;HPM_P2
2022/09/17 00:00:58;;;;;;;6.33;4.00;;;;;;;13.59;79.49;95097.72;4935264;29;20586;-82
2022/09/17 00:03:25;;;;;;;3.93;3.50;;;;;;;13.51;79.49;95094.56;4939759;29;20923;-80
2022/09/17 00:05:59;;;;;;;5.33;3.40;;;;;;;13.50;78.79;95109.28;4935860;29;20237;-81
2022/09/17 00:08:25;;;;;;;3.87;3.57;;;;;;;13.47;78.89;95107.09;4935318;29;20206;-82
2022/09/17 00:10:52;;;;;;;3.90;3.60;;;;;;;13.33;79.37;95105.56;4934902;29;20201;-82
2022/09/17 00:13:19;;;;;;;5.77;3.73;;;;;;;13.36;79.17;95102.59;4935621;29;20205;-82
2022/09/17 00:15:46;;;;;;;3.83;3.40;;;;;;;13.35;78.61;95104.38;4935170;28;20300;-82
2022/09/17 00:18:16;;;;;;;4.63;3.23;;;;;;;13.35;78.78;95104.38;4935233;29;20205;-81
2022/09/17 00:20:44;;;;;;;4.07;3.40;;;;;;;13.29;79.03;95102.59;4929010;29;20249;-82
2022/09/17 00:23:12;;;;;;;4.60;3.07;;;;;;;13.24;79.02;95099.88;4937143;29;20205;-81
2022/09/17 00:25:39;;;;;;;3.00;2.80;;;;;;;13.27;78.84;95091.69;4934813;29;20229;-82
2022/09/17 00:28:05;;;;;;;3.17;2.70;;;;;;;13.25;79.12;95091.09;4934846;29;20209;-81
2022/09/17 00:30:32;;;;;;;3.40;3.07;;;;;;;13.22;79.52;95094.09;4933568;29;20570;-82
2022/09/17 00:32:59;;;;;;;3.43;3.07;;;;;;;13.26;78.72;95102.25;4934976;29;20228;-81
2022/09/17 00:35:27;;;;;;;2.40;2.20;;;;;;;13.30;78.42;95098.22;4934242;28;20232;-82
2022/09/17 00:37:54;;;;;;;3.40;2.47;;;;;;;13.25;78.66;95104.03;4935163;29;20260;-81
2022/09/17 00:40:21;;;;;;;3.40;2.30;;;;;;;13.20;78.21;95105.63;4934263;29;20205;-81
2022/09/17 00:42:52;;;;;;;3.53;2.23;;;;;;;13.26;77.98;95113.38;4935150;29;20205;-81
2022/09/17 00:45:19;;;;;;;2.53;2.30;;;;;;;13.28;77.51;95116.53;4933934;29;20257;-83
2022/09/17 00:47:47;;;;;;;3.93;2.10;;;;;;;13.31;77.09;95121.28;4934912;29;20210;-81
2022/09/17 00:50:17;;;;;;;3.33;2.00;;;;;;;13.33;76.58;95116.72;4933769;29;20213;-81
2022/09/17 00:52:49;;;;;;;5.10;1.70;;;;;;;13.29;76.49;95114.75;4929197;29;20206;-81
2022/09/17 00:55:19;;;;;;;2.40;1.80;;;;;;;13.31;76.52;95118.72;4934421;29;20237;-81
2022/09/17 00:57:46;;;;;;;2.27;1.67;;;;;;;13.26;76.73;95123.72;4929576;29;20210;-81
2022/09/17 01:00:14;;;;;;;1.93;1.70;;;;;;;13.29;76.48;95120.69;4934109;29;20205;-82
2022/09/17 01:02:42;;;;;;;2.43;1.80;;;;;;;13.25;76.73;95123.91;4934481;29;20205;-81
2022/09/17 01:05:11;;;;;;;2.10;1.90;;;;;;;13.21;76.42;95123.53;4935441;29;20677;-82
2022/09/17 01:08:04;;;;;;;2.27;1.90;;;;;;;13.21;76.60;95118.34;4936990;29;20209;-80
2022/09/17 01:10:50;;;;;;;3.03;1.83;;;;;;;13.18;76.58;95123.13;4935503;29;20205;-79
2022/09/17 01:13:30;;;;;;;2.23;1.90;;;;;;;13.13;76.66;95121.91;4936713;29;20202;-79
2022/09/17 01:16:04;;;;;;;1.93;1.40;;;;;;;13.19;77.15;95120.34;4932068;29;20281;-80
2022/09/17 01:18:40;;;;;;;1.77;1.67;;;;;;;13.23;76.41;95124.13;4936876;29;20236;-79
2022/09/17 01:21:28;;;;;;;2.90;1.40;;;;;;;13.28;76.15;95120.91;4935513;29;20197;-79
2022/09/17 01:24:21;;;;;;;1.80;1.70;;;;;;;13.17;77.07;95119.75;4937117;29;20234;-79
2022/09/17 01:27:29;;;;;;;3.23;1.70;;;;;;;13.17;76.74;95117.19;4931071;29;20233;-80
2022/09/17 01:30:12;;;;;;;3.03;1.70;;;;;;;13.18;76.79;95113.59;4932205;29;20201;-79
2022/09/17 01:32:52;;;;;;;2.23;2.00;;;;;;;13.22;76.72;95125.13;5088721;27;20552;-80
2022/09/17 01:35:25;;;;;;;1.60;1.50;;;;;;;13.24;77.03;95125.72;5066865;28;20226;-80
2022/09/17 01:38:01;;;;;;;2.27;1.70;;;;;;;13.22;77.00;95129.50;5019460;28;20282;-80
2022/09/17 01:40:34;;;;;;;2.20;1.83;;;;;;;13.26;76.89;95133.28;5011504;28;20195;-80
2022/09/17 01:43:07;;;;;;;1.70;1.60;;;;;;;13.28;77.04;95129.44;5011051;28;20237;-81
2022/09/17 01:45:39;;;;;;;2.90;1.63;;;;;;;13.27;76.93;95130.47;5018123;28;20229;-81
2022/09/17 01:48:11;;;;;;;2.10;1.90;;;;;;;13.25;77.55;95126.50;5028116;28;20202;-81
2022/09/17 01:50:40;;;;;;;1.97;1.70;;;;;;;13.23;76.95;95131.09;4988849;28;20754;-81
2022/09/17 01:53:10;;;;;;;2.53;1.80;;;;;;;13.20;76.84;95124.53;5005435;28;20190;-80
2022/09/17 01:55:40;;;;;;;2.60;1.70;;;;;;;13.06;77.20;95126.34;5031670;28;20226;-81
2022/09/17 01:58:13;;;;;;;2.57;1.83;;;;;;;13.16;76.70;95123.34;5049085;28;20194;-82
2022/09/17 02:00:41;;;;;;;2.07;1.60;;;;;;;13.16;76.00;95119.97;5048213;28;20289;-81
2022/09/17 02:03:16;;;;;;;1.50;1.40;;;;;;;13.14;75.98;95117.53;5047599;28;20198;-80
2022/09/17 02:05:47;;;;;;;1.60;1.50;;;;;;;13.12;75.98;95124.72;5049438;28;20271;-80
2022/09/17 02:08:16;;;;;;;2.67;1.57;;;;;;;13.10;75.68;95119.75;5049139;28;20189;-82
2022/09/17 02:10:45;;;;;;;2.07;1.20;;;;;;;13.03;75.17;95121.56;5049181;28;20193;-82
2022/09/17 02:13:15;;;;;;;1.20;1.10;;;;;;;12.99;74.42;95130.72;5049596;28;20216;-82
2022/09/17 02:15:49;;;;;;;1.30;1.17;;;;;;;13.01;75.17;95122.75;5047933;28;20245;-81
2022/09/17 02:18:23;;;;;;;1.30;1.20;;;;;;;12.97;74.96;95121.56;5048331;28;20220;-81
2022/09/17 02:20:54;;;;;;;2.00;1.30;;;;;;;13.01;74.55;95118.38;5029154;28;20268;-82
2022/09/17 02:23:29;;;;;;;1.60;1.20;;;;;;;12.98;74.12;95115.41;5041388;28;20197;-82
2022/09/17 02:26:01;;;;;;;1.80;1.27;;;;;;;12.91;74.27;95117.19;5029288;28;20218;-81
2022/09/17 02:28:34;;;;;;;1.83;1.37;;;;;;;12.97;75.17;95118.97;5035036;28;20198;-80
2022/09/17 02:31:01;;;;;;;1.63;1.23;;;;;;;13.01;75.41;95109.84;5034433;28;20217;-81
2022/09/17 02:33:31;;;;;;;1.30;1.20;;;;;;;12.99;74.92;95101.50;5034927;28;20682;-81
2022/09/17 02:35:58;;;;;;;2.20;1.40;;;;;;;12.91;76.57;95104.28;5040512;28;20414;-81
2022/09/17 02:38:26;;;;;;;2.47;1.53;;;;;;;12.86;77.00;95097.16;5046345;28;20194;-81
2022/09/17 02:41:14;;;;;;;2.23;1.50;;;;;;;12.78;76.79;95087.81;5048391;28;20217;-82
2022/09/17 02:43:51;;;;;;;2.40;1.30;;;;;;;12.82;77.34;95085.63;5036692;28;20202;-81
2022/09/17 02:46:34;;;;;;;2.57;1.50;;;;;;;12.76;77.23;95079.47;5019637;28;20231;-80
2022/09/17 02:49:20;;;;;;;1.30;1.20;;;;;;;12.72;77.36;95080.88;5017940;28;20205;-82
2022/09/17 02:51:54;;;;;;;4.20;1.30;;;;;;;12.69;76.48;95075.34;5022920;28;20277;-83
2022/09/17 02:54:26;;;;;;;1.73;1.20;;;;;;;12.75;76.04;95079.69;5021072;28;20702;-82
2022/09/17 02:57:04;;;;;;;3.70;1.33;;;;;;;12.72;76.61;95072.31;5016211;28;20218;-81
2022/09/17 02:59:41;;;;;;;1.40;1.30;;;;;;;12.76;76.22;95065.75;5033745;28;20194;-80
2022/09/17 03:02:13;;;;;;;1.53;1.27;;;;;;;12.72;75.94;95064.56;5029005;28;20187;-81
2022/09/17 03:04:42;;;;;;;2.27;1.60;;;;;;;12.69;76.47;95065.00;5028468;28;20701;-81
2022/09/17 03:07:10;;;;;;;2.10;1.17;;;;;;;12.66;75.94;95061.03;5029750;28;20739;-81
2022/09/17 03:09:37;;;;;;;1.43;1.20;;;;;;;12.63;75.93;95060.63;5034094;28;20737;-82
2022/09/17 03:12:04;;;;;;;1.93;1.10;;;;;;;12.60;76.34;95058.47;5033559;28;20210;-82
2022/09/17 03:14:31;;;;;;;1.97;1.30;;;;;;;12.64;75.24;95054.47;5029480;28;20268;-80
2022/09/17 03:16:57;;;;;;;1.97;1.30;;;;;;;12.56;76.14;95054.69;5016276;28;20285;-81
2022/09/17 03:19:23;;;;;;;1.40;1.10;;;;;;;12.61;75.88;95063.41;5020970;28;20194;-81
2022/09/17 03:21:51;;;;;;;2.63;1.20;;;;;;;12.62;76.05;95067.59;5016637;28;20242;-81
2022/09/17 03:24:18;;;;;;;1.53;1.40;;;;;;;12.50;75.72;95073.56;5016785;28;20637;-81
2022/09/17 03:26:46;;;;;;;1.67;1.33;;;;;;;12.50;75.30;95063.25;5016788;28;20293;-81
2022/09/17 03:29:12;;;;;;;3.53;1.30;;;;;;;12.49;75.00;95070.22;5017174;28;20666;-82
2022/09/17 03:31:39;;;;;;;1.47;1.10;;;;;;;12.55;74.86;95061.63;5027918;28;20245;-82
2022/09/17 03:34:06;;;;;;;2.73;1.20;;;;;;;12.53;75.94;95068.00;5031879;28;20218;-81
2022/09/17 03:36:33;;;;;;;1.23;1.00;;;;;;;12.55;75.33;95066.78;5031045;23;20230;-80
2022/09/17 03:39:01;;;;;;;3.37;1.10;;;;;;;12.53;76.10;95078.31;5011333;28;20206;-80
2022/09/17 03:41:27;;;;;;;2.40;1.00;;;;;;;12.52;76.09;95071.56;5011875;28;20870;-79
2022/09/17 03:43:54;;;;;;;2.17;1.40;;;;;;;12.47;76.57;95071.41;5012451;28;20203;-80
2022/09/17 03:46:21;;;;;;;2.20;1.20;;;;;;;12.51;76.36;95063.03;5012687;28;20289;-82
2022/09/17 03:48:47;;;;;;;2.83;1.23;;;;;;;12.44;77.58;95073.38;5013533;28;20214;-80
2022/09/17 03:51:14;;;;;;;1.50;1.40;;;;;;;12.50;77.21;95064.06;5012121;28;20350;-80
2022/09/17 03:53:40;;;;;;;1.90;1.30;;;;;;;12.56;77.02;95065.81;5012923;28;20221;-79
2022/09/17 03:56:08;;;;;;;2.10;1.20;;;;;;;12.62;76.03;95059.06;5011972;28;20706;-79
2022/09/17 03:58:34;;;;;;;1.50;1.30;;;;;;;12.58;75.96;95060.44;5013493;28;20207;-79
2022/09/17 04:01:02;;;;;;;3.00;1.43;;;;;;;12.42;76.09;95065.03;5012465;28;20261;-81
2022/09/17 04:03:29;;;;;;;2.40;1.30;;;;;;;12.44;76.54;95064.84;5012672;28;20282;-80
2022/09/17 04:05:56;;;;;;;2.37;1.60;;;;;;;12.41;76.69;95073.78;5011917;28;20726;-80
2022/09/17 04:08:23;;;;;;;1.50;1.30;;;;;;;12.46;76.42;95068.03;5012636;28;20207;-79
2022/09/17 04:10:50;;;;;;;2.23;1.20;;;;;;;12.50;76.68;95081.31;5012168;28;20614;-80
2022/09/17 04:13:18;;;;;;;1.40;1.23;;;;;;;12.46;76.31;95080.94;5012631;28;20226;-79
2022/09/17 04:15:45;;;;;;;1.30;1.20;;;;;;;12.48;76.72;95072.97;5011835;28;20297;-80
2022/09/17 04:18:12;;;;;;;1.40;1.30;;;;;;;12.52;76.11;95074.94;5012291;28;20237;-80
2022/09/17 04:20:39;;;;;;;1.90;1.30;;;;;;;12.52;75.80;95079.31;5012155;28;20199;-80
2022/09/17 04:23:06;;;;;;;2.67;1.20;;;;;;;12.46;75.99;95068.03;5001534;28;20213;-80
2022/09/17 04:25:33;;;;;;;2.00;1.40;;;;;;;12.46;75.45;95070.59;4992464;28;20786;-79
2022/09/17 04:27:59;;;;;;;2.80;1.50;;;;;;;12.37;76.11;95057.09;4992898;28;20204;-80
2022/09/17 04:30:27;;;;;;;2.60;1.30;;;;;;;12.31;75.78;95059.69;4991887;28;20286;-80
2022/09/17 04:32:53;;;;;;;1.53;1.43;;;;;;;12.31;76.55;95065.66;4992890;28;20227;-79
2022/09/17 04:35:20;;;;;;;2.80;1.70;;;;;;;12.27;75.68;95068.81;4992540;28;20231;-80
2022/09/17 04:37:52;;;;;;;1.50;1.40;;;;;;;12.23;76.37;95075.38;4992759;28;20203;-79
2022/09/17 04:40:18;;;;;;;2.03;1.47;;;;;;;12.25;76.74;95071.59;4992153;28;20258;-79
2022/09/17 04:42:45;;;;;;;1.67;1.47;;;;;;;12.25;76.60;95069.03;4992574;28;20199;-79
2022/09/17 04:45:11;;;;;;;1.50;1.40;;;;;;;12.19;76.34;95069.00;4991632;28;20235;-81
2022/09/17 04:47:40;;;;;;;1.80;1.20;;;;;;;12.18;76.24;95077.75;4992694;28;20295;-80
2022/09/17 04:50:08;;;;;;;1.80;1.47;;;;;;;12.19;76.18;95084.50;4992331;28;20204;-80
2022/09/17 04:52:35;;;;;;;2.40;2.20;;;;;;;12.15;75.95;95088.47;4991779;28;20247;-80
2022/09/17 04:55:02;;;;;;;4.33;3.73;;;;;;;12.09;75.97;95097.81;4982081;28;20232;-80
2022/09/17 04:57:28;;;;;;;1.93;1.83;;;;;;;12.11;75.95;95106.16;4991650;28;20208;-80
2022/09/17 04:59:55;;;;;;;1.57;1.43;;;;;;;12.21;75.55;95116.06;4992353;28;20206;-80
2022/09/17 05:02:21;;;;;;;3.13;2.37;;;;;;;12.29;75.21;95127.00;4992199;28;20199;-79
2022/09/17 05:04:49;;;;;;;1.90;1.47;;;;;;;12.35;75.30;95159.75;5008231;28;20218;-80
2022/09/17 05:07:16;;;;;;;1.90;1.40;;;;;;;12.35;74.54;95166.69;5012069;28;20229;-80
2022/09/17 05:09:42;;;;;;;2.53;1.40;;;;;;;12.42;74.05;95175.25;5011772;28;20203;-80
2022/09/17 05:12:09;;;;;;;1.17;1.07;;;;;;;12.46;74.29;95184.22;5011193;28;20222;-79
2022/09/17 05:14:35;;;;;;;2.63;1.53;;;;;;;12.45;74.15;95188.56;5012093;28;20630;-80
2022/09/17 05:17:02;;;;;;;1.93;1.57;;;;;;;12.47;74.09;95180.63;5011050;28;20304;-81
2022/09/17 05:19:29;;;;;;;1.77;1.47;;;;;;;12.43;75.07;95187.97;5011942;28;20798;-80
2022/09/17 05:21:56;;;;;;;2.63;1.33;;;;;;;12.40;75.55;95193.53;5010173;28;20227;-79
2022/09/17 05:24:23;;;;;;;2.73;1.33;;;;;;;12.31;75.50;95202.47;4991627;28;20207;-79
2022/09/17 05:26:49;;;;;;;2.33;1.43;;;;;;;12.35;74.69;95206.22;4991353;28;20231;-80
2022/09/17 05:29:16;;;;;;;1.60;1.17;;;;;;;12.35;74.69;95208.81;4992096;28;20268;-80
2022/09/17 05:31:42;;;;;;;2.37;1.50;;;;;;;12.42;75.12;95214.78;4991225;28;20672;-80
2022/09/17 05:34:09;;;;;;;1.67;1.30;;;;;;;12.50;74.18;95218.97;4991842;28;20258;-80
2022/09/17 05:36:35;;;;;;;1.57;1.47;;;;;;;12.33;75.48;95234.03;4991113;28;20297;-80
2022/09/17 05:39:03;;;;;;;1.80;1.40;;;;;;;12.31;74.39;95233.44;4991816;28;20274;-80
2022/09/17 05:41:29;;;;;;;2.20;1.37;;;;;;;12.26;74.86;95235.00;4991335;28;20664;-80
2022/09/17 05:43:56;;;;;;;2.93;1.50;;;;;;;12.31;74.06;95233.44;4991822;28;20199;-79
2022/09/17 05:46:22;;;;;;;2.33;1.60;;;;;;;12.17;75.11;95246.50;4991598;28;20231;-79
2022/09/17 05:48:49;;;;;;;2.60;1.47;;;;;;;12.24;75.06;95237.78;4991642;28;20672;-79
2022/09/17 05:51:15;;;;;;;3.03;1.33;;;;;;;12.19;74.59;95247.09;4990045;28;20215;-80
2022/09/17 05:53:41;;;;;;;2.30;1.53;;;;;;;12.04;75.37;95255.00;4991877;28;20254;-80
2022/09/17 05:56:09;;;;;;;2.50;1.33;;;;;;;12.12;74.55;95251.47;4991008;28;20235;-79
2022/09/17 05:58:35;;;;;;;3.23;1.57;;;;;;;12.16;73.64;95255.22;4992183;28;20207;-81
2022/09/17 06:01:02;;;;;;;1.73;1.20;;;;;;;12.24;72.88;95252.47;4990913;28;20204;-79
2022/09/17 06:03:28;;;;;;;2.53;1.47;;;;;;;12.25;73.02;95254.06;4996984;28;20198;-79
2022/09/17 06:05:57;;;;;;;2.67;1.30;;;;;;;12.32;73.02;95252.28;5011049;28;20250;-80
2022/09/17 06:08:24;;;;;;;2.23;1.60;;;;;;;12.36;73.32;95256.88;5011431;28;20429;-81
2022/09/17 06:10:50;;;;;;;3.00;1.43;;;;;;;12.38;71.63;95252.31;5010994;28;20199;-80
2022/09/17 06:13:19;;;;;;;4.53;1.80;;;;;;;12.40;72.95;95240.00;5011299;28;20715;-78
2022/09/17 06:15:50;;;;;;;2.70;1.60;;;;;;;12.27;71.85;95239.19;5010874;28;20242;-80
2022/09/17 06:18:16;;;;;;;2.27;1.40;;;;;;;12.23;72.91;95228.44;5013519;28;20203;-80
2022/09/17 06:20:42;;;;;;;3.07;1.20;;;;;;;12.24;73.75;95239.56;5014590;28;20202;-81
2022/09/17 06:23:09;;;;;;;2.30;1.43;;;;;;;12.25;73.25;95236.00;5003790;28;20246;-78
2022/09/17 06:25:35;;;;;;;2.43;1.40;;;;;;;12.24;73.45;95237.78;4995040;28;20267;-80
2022/09/17 06:28:02;;;;;;;4.17;1.40;;;;;;;12.28;73.34;95236.41;4995409;28;20262;-81
2022/09/17 06:30:29;;;;;;;4.20;1.20;;;;;;;12.30;72.34;95234.44;4994458;28;20893;-80
2022/09/17 06:32:59;;;;;;;4.43;1.50;;;;;;;12.34;72.94;95227.06;4995115;28;20227;-80
2022/09/17 06:35:25;;;;;;;2.50;1.30;;;;;;;12.34;72.65;95232.22;4994182;28;20898;-81
2022/09/17 06:37:51;;;;;;;2.10;1.40;;;;;;;12.31;72.33;95233.44;4994898;28;20207;-79
2022/09/17 06:40:18;;;;;;;2.43;1.50;;;;;;;12.24;73.22;95230.03;4994478;28;20258;-79
2022/09/17 06:42:44;;;;;;;3.23;1.40;;;;;;;12.24;73.57;95226.66;4994612;28;20354;-80
2022/09/17 06:45:11;;;;;;;4.27;1.63;;;;;;;12.28;72.38;95226.09;4994163;28;20234;-80
2022/09/17 06:47:38;;;;;;;4.67;1.30;;;;;;;12.25;72.15;95228.25;4994909;28;20207;-79
2022/09/17 06:50:06;;;;;;;2.27;1.27;;;;;;;12.23;72.75;95246.50;4994050;28;20254;-80
2022/09/17 06:52:32;;;;;;;4.47;1.57;;;;;;;12.31;72.66;95232.66;4993579;28;20286;-80
2022/09/17 06:54:58;;;;;;;3.53;1.30;;;;;;;12.32;71.72;95229.03;4993811;28;20273;-79
2022/09/17 06:57:25;;;;;;;3.20;1.50;;;;;;;12.39;71.48;95230.66;4994864;28;20207;-80
2022/09/17 06:59:51;;;;;;;1.90;1.10;;;;;;;12.49;71.62;95235.47;4994739;28;20647;-80
2022/09/17 07:02:18;;;;;;;2.43;1.37;;;;;;;12.52;71.04;95236.81;4994100;28;20200;-79
2022/09/17 07:04:47;;;;;;;1.83;1.40;;;;;;;12.77;70.28;95243.03;5009694;28;20195;-80
2022/09/17 07:07:14;;;;;;;2.57;1.40;;;;;;;13.21;69.35;95226.94;5014552;28;20207;-80
2022/09/17 07:09:40;;;;;;;4.93;1.20;;;;;;;13.60;67.54;95217.50;5013845;28;20798;-80
2022/09/17 07:12:08;;;;;;;1.30;1.20;;;;;;;13.78;67.33;95212.47;5013356;28;20207;-79
2022/09/17 07:14:34;;;;;;;4.60;1.70;;;;;;;13.76;66.36;95219.63;5014636;28;20214;-79
2022/09/17 07:17:01;;;;;;;3.13;1.40;;;;;;;14.06;64.60;95220.69;5013712;28;20258;-80
2022/09/17 07:19:27;;;;;;;3.77;1.40;;;;;;;14.18;64.41;95226.00;5014465;28;20796;-81
2022/09/17 07:21:55;;;;;;;3.10;1.30;;;;;;;14.38;63.63;95221.53;5012771;28;20206;-80
2022/09/17 07:24:21;;;;;;;2.73;1.40;;;;;;;14.45;63.06;95218.91;4994623;28;20624;-80
2022/09/17 07:26:49;;;;;;;11.30;7.50;;;;;;;14.39;62.68;95212.75;4994280;28;20235;-81
2022/09/17 07:29:15;;;;;;;3.50;2.03;;;;;;;14.62;61.30;95221.81;4994480;28;20203;-81
2022/09/17 07:31:42;;;;;;;5.03;1.60;;;;;;;14.67;61.48;95224.53;4994067;28;20898;-81
2022/09/17 07:34:09;;;;;;;2.90;1.67;;;;;;;14.44;59.81;95217.31;4994474;28;20228;-80
2022/09/17 07:36:36;;;;;;;2.50;1.13;;;;;;;14.63;59.76;95218.97;4993410;28;20270;-80
2022/09/17 07:39:04;;;;;;;4.37;1.50;;;;;;;14.57;61.73;95222.44;4994095;28;20239;-79
2022/09/17 07:41:31;;;;;;;4.83;1.40;;;;;;;14.56;60.78;95217.44;4993078;28;20216;-80
2022/09/17 07:43:57;;;;;;;3.10;1.10;;;;;;;14.60;59.43;95210.84;4994000;28;20612;-81
2022/09/17 07:46:23;;;;;;;4.60;1.60;;;;;;;14.38;61.11;95207.78;4993404;28;20262;-80
2022/09/17 07:48:50;;;;;;;2.77;1.43;;;;;;;14.10;61.31;95198.56;4993738;28;20203;-79
2022/09/17 07:51:17;;;;;;;6.00;1.60;;;;;;;13.82;61.03;95195.53;4991809;28;20206;-81
2022/09/17 07:53:44;;;;;;;4.33;1.63;;;;;;;14.00;61.53;95203.41;4993398;28;20723;-81
2022/09/17 07:56:12;;;;;;;3.43;1.33;;;;;;;14.57;60.87;95209.47;4992781;28;20247;-80
2022/09/17 07:58:38;;;;;;;2.17;1.20;;;;;;;14.63;60.68;95200.84;4993422;28;20211;-80
2022/09/17 08:01:07;;;;;;;3.47;1.20;;;;;;;14.66;59.38;95208.19;4992591;28;20227;-80
2022/09/17 08:03:34;;;;;;;3.20;1.27;;;;;;;14.34;60.40;95207.41;4999111;28;20211;-80
2022/09/17 08:06:03;;;;;;;3.95;1.60;;;;;;;14.23;61.52;95212.44;5012463;28;20234;-79
2022/09/17 08:08:30;;;;;;;3.45;1.30;;;;;;;14.00;61.08;95228.50;5012916;28;20693;-80
2022/09/17 08:11:00;;;;;;;3.07;1.30;;;;;;;14.41;59.49;95225.53;5012286;28;20210;-79
2022/09/17 08:13:28;;;;;;;3.80;1.55;;;;;;;14.68;56.73;95216.56;5012762;28;20290;-79
2022/09/17 08:15:59;;;;;;;5.83;4.00;;;;;;;15.09;57.20;95216.03;5012596;28;20729;-79
2022/09/17 08:18:26;;;;;;;3.35;1.50;;;;;;;15.12;56.32;95213.00;5012796;28;20233;-80
2022/09/17 08:20:52;;;;;;;3.60;1.30;;;;;;;15.00;57.31;95219.13;5012044;28;20285;-80
2022/09/17 08:23:18;;;;;;;5.53;1.48;;;;;;;15.27;55.80;95224.84;5000056;28;20254;-79
2022/09/17 08:25:54;;;;;;;3.95;1.38;;;;;;;15.27;55.88;95232.63;4992660;28;20239;-80
2022/09/17 08:28:21;;;;;;;3.40;1.35;;;;;;;14.73;56.12;95224.50;4992890;28;20199;-80
2022/09/17 08:30:49;;;;;;;3.30;1.65;;;;;;;14.62;57.03;95232.97;4992506;28;20208;-80
2022/09/17 08:33:16;;;;;;;4.80;1.90;;;;;;;14.16;56.99;95228.00;4993415;28;20231;-80
2022/09/17 08:35:43;;;;;;;7.68;4.55;;;;;;;13.90;57.63;95238.47;4992459;28;20251;-80
2022/09/17 08:38:09;;;;;;;4.37;1.70;;;;;;;13.95;58.52;95236.06;4993292;28;20266;-80
2022/09/17 08:40:42;;;;;;;7.90;1.60;;;;;;;13.97;58.65;95236.66;4992168;28;20215;-78
2022/09/17 08:43:14;;;;;;;2.53;1.10;;;;;;;13.74;57.58;95243.13;4993043;28;20196;-81
2022/09/17 08:45:41;;;;;;;2.67;1.10;;;;;;;13.72;58.50;95249.50;4992660;28;20294;-80
2022/09/17 08:48:14;;;;;;;2.50;1.40;;;;;;;13.60;59.01;95257.09;4992971;28;20212;-80
2022/09/17 08:50:41;;;;;;;3.83;1.20;;;;;;;13.61;59.19;95266.44;4992563;28;20290;-81
2022/09/17 08:53:25;;;;;;;3.03;1.30;;;;;;;13.49;59.38;95258.50;4991345;28;20313;-80
2022/09/17 08:56:01;;;;;;;2.50;1.50;;;;;;;13.53;59.28;95261.47;4992428;28;20289;-80
2022/09/17 08:58:57;;;;;;;2.07;1.00;;;;;;;13.45;59.32;95261.72;4992838;28;20259;-80
2022/09/17 09:01:34;;;;;;;3.63;1.57;;;;;;;13.38;58.96;95269.47;4987040;28;20282;-79
2022/09/17 09:04:24;;;;;;;4.03;1.30;;;;;;;13.32;59.08;95277.22;5002210;28;20259;-78
2022/09/17 09:06:55;;;;;;;4.63;1.67;;;;;;;13.36;59.33;95278.41;5011416;28;20780;-80
2022/09/17 09:09:24;;;;;;;2.97;1.30;;;;;;;13.31;59.47;95278.22;5012041;28;20249;-80
2022/09/17 09:12:01;;;;;;;2.47;1.43;;;;;;;13.29;60.03;95275.84;5011471;28;20237;-80
2022/09/17 09:14:31;;;;;;;4.50;1.30;;;;;;;13.32;60.17;95280.59;5012225;28;20284;-80
2022/09/17 09:16:59;;;;;;;3.03;1.50;;;;;;;13.38;58.97;95279.81;5011254;28;20238;-80
2022/09/17 09:19:31;;;;;;;2.93;1.53;;;;;;;13.38;58.38;95276.44;5011599;28;20261;-81
2022/09/17 09:22:03;;;;;;;3.50;1.30;;;;;;;13.41;58.51;95263.91;5009574;28;20206;-80
2022/09/17 09:24:40;;;;;;;7.90;1.43;;;;;;;13.37;58.62;95282.59;4992763;28;20546;-79
2022/09/17 09:27:16;;;;;;;4.33;1.40;;;;;;;13.40;59.72;95271.84;4992254;28;20222;-81
2022/09/17 09:29:53;;;;;;;2.67;1.30;;;;;;;13.41;60.00;95278.63;4992434;28;20290;-81
2022/09/17 09:32:33;;;;;;;8.00;1.70;;;;;;;13.33;60.22;95279.63;4992084;28;20203;-79
2022/09/17 09:35:12;;;;;;;4.73;1.77;;;;;;;13.43;62.20;95287.78;4991767;28;20654;-80
2022/09/17 09:37:43;;;;;;;4.40;2.33;;;;;;;13.37;62.40;95288.56;4992050;28;20254;-80
2022/09/17 09:40:25;;;;;;;2.93;1.33;;;;;;;13.42;60.05;95285.38;4991211;28;20207;-79
2022/09/17 09:42:55;;;;;;;2.97;1.40;;;;;;;13.33;60.20;95289.16;4992141;28;20207;-80
2022/09/17 09:45:27;;;;;;;3.40;1.40;;;;;;;13.28;59.98;95289.75;4991809;28;20239;-79
2022/09/17 09:48:00;;;;;;;1.97;1.50;;;;;;;13.34;60.31;95286.38;4992450;28;20230;-80
2022/09/17 09:50:41;;;;;;;4.13;1.70;;;;;;;13.34;61.42;95291.56;4991563;28;20274;-80
2022/09/17 09:53:19;;;;;;;2.20;1.37;;;;;;;13.38;61.73;95286.78;4991888;28;20753;-81
2022/09/17 09:56:06;;;;;;;10.03;6.50;;;;;;;13.34;60.70;95299.31;4995392;28;20286;-81
2022/09/17 09:58:35;;;;;;;4.17;2.30;;;;;;;13.34;60.60;95288.16;4995740;28;20207;-79
2022/09/17 10:01:02;;;;;;;2.83;1.40;;;;;;;13.26;62.39;95306.50;4996165;28;20246;-80
2022/09/17 10:03:31;;;;;;;3.10;1.43;;;;;;;13.00;63.55;95296.91;5000655;28;20205;-80
2022/09/17 10:06:00;;;;;;;5.37;1.50;;;;;;;12.83;65.70;95311.19;5015287;28;20296;-80
2022/09/17 10:08:29;;;;;;;3.23;1.50;;;;;;;12.90;67.61;95310.19;5015685;28;20621;-81
2022/09/17 10:10:57;;;;;;;2.60;1.40;;;;;;;12.84;68.55;95308.41;5015297;28;20256;-80
2022/09/17 10:13:24;;;;;;;7.33;1.63;;;;;;;12.87;70.38;95309.81;5015871;28;20222;-81
2022/09/17 10:15:50;;;;;;;4.97;1.80;;;;;;;12.89;71.14;95311.22;5015507;28;20308;-80
2022/09/17 10:18:19;;;;;;;22.90;14.43;;;;;;;12.86;72.38;95321.16;5016231;28;20226;-79
2022/09/17 10:20:57;;;;;;;6.43;3.50;;;;;;;12.74;73.56;95323.50;5015222;28;20748;-80
2022/09/17 10:23:27;;;;;;;5.00;1.77;;;;;;;12.66;76.44;95319.31;5002497;28;20195;-80
2022/09/17 10:25:55;;;;;;;5.73;1.60;;;;;;;12.64;75.08;95326.47;4995350;28;20235;-80
2022/09/17 10:28:33;;;;;;;3.00;1.50;;;;;;;12.64;75.21;95316.13;4995373;28;20242;-80
2022/09/17 10:31:03;;;;;;;3.57;1.47;;;;;;;12.55;75.54;95319.06;4994675;28;20671;-81
2022/09/17 10:33:30;;;;;;;3.60;1.60;;;;;;;12.41;76.67;95324.22;4995385;28;20723;-78
2022/09/17 10:36:03;;;;;;;4.00;1.70;;;;;;;12.40;75.91;95317.47;4994252;28;20298;-80
2022/09/17 10:38:33;;;;;;;4.70;1.60;;;;;;;12.33;76.44;95311.47;4995878;28;20203;-80
2022/09/17 10:41:24;;;;;;;3.33;1.50;;;;;;;12.33;77.49;95311.47;4995318;28;20200;-79
2022/09/17 10:43:51;;;;;;;1.77;1.43;;;;;;;12.33;78.28;95314.03;4980005;28;20610;-80
2022/09/17 10:46:25;;;;;;;2.03;1.40;;;;;;;12.39;77.92;95313.28;4994479;28;20242;-80
2022/09/17 10:48:59;;;;;;;2.50;1.50;;;;;;;12.45;76.29;95307.34;4995432;28;20226;-79
2022/09/17 10:51:26;;;;;;;2.23;1.43;;;;;;;12.50;76.25;95309.34;4993981;28;20227;-80
2022/09/17 10:54:36;;;;;;;3.30;1.27;;;;;;;12.52;77.28;95307.34;4995613;28;20786;-79
2022/09/17 10:57:06;;;;;;;6.13;1.30;;;;;;;12.63;78.22;95296.47;4994401;28;20235;-80
2022/09/17 10:59:55;;;;;;;3.13;1.30;;;;;;;12.75;75.91;95299.25;4995579;28;20296;-80
2022/09/17 11:02:55;;;;;;;23.40;15.20;;;;;;;12.62;76.75;95299.25;4994366;28;20291;-80
2022/09/17 11:05:38;;;;;;;2.87;1.60;;;;;;;12.64;77.14;95300.63;4950928;28;20236;-79
2022/09/17 11:08:11;;;;;;;2.93;1.53;;;;;;;12.66;78.17;95306.41;4994691;28;20614;-80
2022/09/17 11:10:46;;;;;;;1.43;1.20;;;;;;;12.62;76.92;95299.25;4993603;28;20249;-80
2022/09/17 11:13:24;;;;;;;2.00;1.30;;;;;;;12.64;77.71;95302.44;4994696;28;20678;-80
2022/09/17 11:16:05;;;;;;;5.90;1.60;;;;;;;12.64;76.28;95299.84;4993880;28;20835;-79
2022/09/17 11:18:40;;;;;;;2.60;1.20;;;;;;;12.59;76.15;95303.00;4994500;28;20647;-81
2022/09/17 11:21:33;;;;;;;2.93;1.30;;;;;;;12.59;76.07;95309.94;4993916;28;20210;-79
2022/09/17 11:24:32;;;;;;;1.67;1.20;;;;;;;12.41;77.47;95313.09;5012649;28;20198;-80
2022/09/17 11:27:08;;;;;;;5.13;1.40;;;;;;;12.43;77.00;95296.41;4989405;28;20243;-81
2022/09/17 11:29:52;;;;;;;7.07;4.93;;;;;;;12.49;78.45;95301.81;4994525;28;20833;-81
2022/09/17 11:32:36;;;;;;;2.97;2.40;;;;;;;12.53;77.93;95290.88;4993889;28;20265;-81
2022/09/17 11:35:07;;;;;;;1.53;1.30;;;;;;;12.53;78.44;95297.81;4994276;28;20235;-80
2022/09/17 11:37:38;;;;;;;3.83;1.90;;;;;;;12.57;78.56;95296.44;4994418;28;20239;-79
2022/09/17 11:40:12;;;;;;;1.70;1.37;;;;;;;12.46;81.02;95300.41;4994055;28;20258;-80
2022/09/17 11:42:45;;;;;;;1.73;1.27;;;;;;;12.64;78.62;95297.25;4994362;28;20204;-80
2022/09/17 11:45:14;;;;;;;3.53;1.37;;;;;;;12.72;80.07;95295.28;4997987;28;20318;-80
2022/09/17 11:47:46;;;;;;;1.87;1.20;;;;;;;12.82;79.09;95297.47;5013908;28;20207;-80
2022/09/17 11:50:19;;;;;;;3.27;1.57;;;;;;;12.82;78.50;95294.09;5013196;28;20203;-80